Aviation Digital Data Service (ADDS)

Output produced by TAFs form (0843 UTC 25 October 2014)
found at http://aviationweather.gov/adds/tafs/
 
KTCC 250532Z 2506/2606 22010KT P6SM SKC 
     FM250800 25007KT P6SM SKC 
     FM252000 22014G22KT P6SM SKC 
     FM260200 22010KT P6SM SKC